sensor_id;sensor_type;location;lat;lon;timestamp;P1;durP1;ratioP1;P2;durP2;ratioP2
13785;SDS011;47474;48.824;9.384;2024-01-15T00:02:00;28.17;;;14.40;;
13785;SDS011;47474;48.824;9.384;2024-01-15T00:04:26;30.67;;;16.77;;
13785;SDS011;47474;48.824;9.384;2024-01-15T00:06:54;35.30;;;16.43;;
13785;SDS011;47474;48.824;9.384;2024-01-15T00:09:21;34.00;;;15.93;;
13785;SDS011;47474;48.824;9.384;2024-01-15T00:11:48;26.73;;;14.47;;
13785;SDS011;47474;48.824;9.384;2024-01-15T00:14:15;27.70;;;15.20;;
13785;SDS011;47474;48.824;9.384;2024-01-15T00:16:45;31.33;;;16.23;;
13785;SDS011;47474;48.824;9.384;2024-01-15T00:19:11;35.17;;;16.03;;
13785;SDS011;47474;48.824;9.384;2024-01-15T00:21:38;32.30;;;15.43;;
13785;SDS011;47474;48.824;9.384;2024-01-15T00:24:06;32.87;;;14.77;;
13785;SDS011;47474;48.824;9.384;2024-01-15T00:26:32;30.27;;;15.00;;
13785;SDS011;47474;48.824;9.384;2024-01-15T00:28:59;30.57;;;16.30;;
13785;SDS011;47474;48.824;9.384;2024-01-15T00:31:25;31.37;;;14.70;;
13785;SDS011;47474;48.824;9.384;2024-01-15T00:33:52;31.47;;;16.27;;
13785;SDS011;47474;48.824;9.384;2024-01-15T00:36:18;32.03;;;15.17;;
13785;SDS011;47474;48.824;9.384;2024-01-15T00:38:45;32.20;;;15.13;;
13785;SDS011;47474;48.824;9.384;2024-01-15T00:41:13;32.17;;;14.77;;
13785;SDS011;47474;48.824;9.384;2024-01-15T00:43:40;27.10;;;13.83;;
13785;SDS011;47474;48.824;9.384;2024-01-15T00:46:06;28.33;;;14.27;;
13785;SDS011;47474;48.824;9.384;2024-01-15T00:48:33;30.73;;;15.07;;
13785;SDS011;47474;48.824;9.384;2024-01-15T00:50:59;29.27;;;15.03;;
13785;SDS011;47474;48.824;9.384;2024-01-15T00:53:26;29.30;;;14.60;;
13785;SDS011;47474;48.824;9.384;2024-01-15T00:55:53;28.90;;;14.43;;
13785;SDS011;47474;48.824;9.384;2024-01-15T00:58:21;26.53;;;13.73;;
13785;SDS011;47474;48.824;9.384;2024-01-15T01:00:47;28.87;;;13.70;;
13785;SDS011;47474;48.824;9.384;2024-01-15T01:03:14;26.70;;;15.03;;
13785;SDS011;47474;48.824;9.384;2024-01-15T01:05:41;29.27;;;14.80;;
13785;SDS011;47474;48.824;9.384;2024-01-15T01:08:09;22.93;;;12.97;;
13785;SDS011;47474;48.824;9.384;2024-01-15T01:10:35;30.30;;;13.57;;
13785;SDS011;47474;48.824;9.384;2024-01-15T01:13:02;25.63;;;14.17;;
13785;SDS011;47474;48.824;9.384;2024-01-15T01:15:30;31.30;;;15.23;;
13785;SDS011;47474;48.824;9.384;2024-01-15T01:17:56;28.50;;;15.73;;
13785;SDS011;47474;48.824;9.384;2024-01-15T01:20:23;30.40;;;14.73;;
13785;SDS011;47474;48.824;9.384;2024-01-15T01:22:49;30.63;;;15.63;;
13785;SDS011;47474;48.824;9.384;2024-01-15T01:25:16;26.87;;;15.37;;
13785;SDS011;47474;48.824;9.384;2024-01-15T01:27:42;31.77;;;15.03;;
13785;SDS011;47474;48.824;9.384;2024-01-15T01:30:09;27.43;;;14.53;;
13785;SDS011;47474;48.824;9.384;2024-01-15T01:32:37;26.67;;;14.90;;
13785;SDS011;47474;48.824;9.384;2024-01-15T01:35:04;29.40;;;14.73;;
13785;SDS011;47474;48.824;9.384;2024-01-15T01:37:31;27.67;;;14.30;;
13785;SDS011;47474;48.824;9.384;2024-01-15T01:39:59;25.30;;;12.93;;
13785;SDS011;47474;48.824;9.384;2024-01-15T01:42:25;28.80;;;14.67;;
13785;SDS011;47474;48.824;9.384;2024-01-15T01:44:52;27.37;;;14.57;;
13785;SDS011;47474;48.824;9.384;2024-01-15T01:47:18;26.47;;;14.33;;
13785;SDS011;47474;48.824;9.384;2024-01-15T01:49:47;25.50;;;13.80;;
13785;SDS011;47474;48.824;9.384;2024-01-15T01:52:13;24.13;;;13.17;;
13785;SDS011;47474;48.824;9.384;2024-01-15T01:54:40;21.83;;;12.30;;
13785;SDS011;47474;48.824;9.384;2024-01-15T01:57:06;24.63;;;12.70;;
13785;SDS011;47474;48.824;9.384;2024-01-15T01:59:34;20.30;;;10.77;;
13785;SDS011;47474;48.824;9.384;2024-01-15T02:02:01;18.87;;;10.17;;
13785;SDS011;47474;48.824;9.384;2024-01-15T02:04:29;18.57;;;9.67;;
13785;SDS011;47474;48.824;9.384;2024-01-15T02:06:58;17.37;;;10.10;;
13785;SDS011;47474;48.824;9.384;2024-01-15T02:09:25;23.30;;;11.50;;
13785;SDS011;47474;48.824;9.384;2024-01-15T02:11:51;21.03;;;12.50;;
13785;SDS011;47474;48.824;9.384;2024-01-15T02:14:18;28.73;;;13.43;;
13785;SDS011;47474;48.824;9.384;2024-01-15T02:16:44;25.33;;;13.17;;
13785;SDS011;47474;48.824;9.384;2024-01-15T02:19:14;27.33;;;13.80;;
13785;SDS011;47474;48.824;9.384;2024-01-15T02:21:41;25.53;;;12.90;;
13785;SDS011;47474;48.824;9.384;2024-01-15T02:24:09;28.67;;;13.27;;
13785;SDS011;47474;48.824;9.384;2024-01-15T02:26:35;25.67;;;13.93;;
13785;SDS011;47474;48.824;9.384;2024-01-15T02:29:03;25.50;;;13.27;;
13785;SDS011;47474;48.824;9.384;2024-01-15T02:31:31;21.20;;;11.50;;
13785;SDS011;47474;48.824;9.384;2024-01-15T02:33:57;20.00;;;10.77;;
13785;SDS011;47474;48.824;9.384;2024-01-15T02:36:24;20.27;;;11.43;;
13785;SDS011;47474;48.824;9.384;2024-01-15T02:38:50;22.00;;;10.43;;
13785;SDS011;47474;48.824;9.384;2024-01-15T02:41:18;22.97;;;10.33;;
13785;SDS011;47474;48.824;9.384;2024-01-15T02:43:45;15.40;;;8.33;;
13785;SDS011;47474;48.824;9.384;2024-01-15T02:46:11;14.20;;;8.70;;
13785;SDS011;47474;48.824;9.384;2024-01-15T02:48:38;15.10;;;8.57;;
13785;SDS011;47474;48.824;9.384;2024-01-15T02:51:04;19.07;;;10.23;;
13785;SDS011;47474;48.824;9.384;2024-01-15T02:53:31;15.30;;;8.33;;
13785;SDS011;47474;48.824;9.384;2024-01-15T02:55:57;16.13;;;8.67;;
13785;SDS011;47474;48.824;9.384;2024-01-15T02:58:25;16.03;;;9.03;;
13785;SDS011;47474;48.824;9.384;2024-01-15T03:00:52;18.00;;;8.87;;
13785;SDS011;47474;48.824;9.384;2024-01-15T03:03:18;15.47;;;8.27;;
13785;SDS011;47474;48.824;9.384;2024-01-15T03:05:45;16.47;;;8.23;;
13785;SDS011;47474;48.824;9.384;2024-01-15T03:08:12;15.93;;;8.83;;
13785;SDS011;47474;48.824;9.384;2024-01-15T03:10:38;15.37;;;8.53;;
13785;SDS011;47474;48.824;9.384;2024-01-15T03:13:05;16.77;;;8.27;;
13785;SDS011;47474;48.824;9.384;2024-01-15T03:15:33;15.47;;;8.53;;
13785;SDS011;47474;48.824;9.384;2024-01-15T03:17:59;14.23;;;7.50;;
13785;SDS011;47474;48.824;9.384;2024-01-15T03:20:26;13.27;;;7.43;;
13785;SDS011;47474;48.824;9.384;2024-01-15T03:22:53;12.37;;;7.27;;
13785;SDS011;47474;48.824;9.384;2024-01-15T03:25:19;21.33;;;7.97;;
13785;SDS011;47474;48.824;9.384;2024-01-15T03:27:46;11.70;;;6.80;;
13785;SDS011;47474;48.824;9.384;2024-01-15T03:30:13;14.33;;;7.63;;
13785;SDS011;47474;48.824;9.384;2024-01-15T03:32:41;14.50;;;8.17;;
13785;SDS011;47474;48.824;9.384;2024-01-15T03:35:08;17.33;;;8.93;;
13785;SDS011;47474;48.824;9.384;2024-01-15T03:37:34;15.70;;;7.37;;
13785;SDS011;47474;48.824;9.384;2024-01-15T03:40:01;12.83;;;7.47;;
13785;SDS011;47474;48.824;9.384;2024-01-15T03:42:28;13.97;;;8.03;;
13785;SDS011;47474;48.824;9.384;2024-01-15T03:44:55;14.80;;;7.43;;
13785;SDS011;47474;48.824;9.384;2024-01-15T03:47:21;16.97;;;8.63;;
13785;SDS011;47474;48.824;9.384;2024-01-15T03:49:49;12.33;;;7.37;;
13785;SDS011;47474;48.824;9.384;2024-01-15T03:52:15;16.20;;;7.63;;
13785;SDS011;47474;48.824;9.384;2024-01-15T03:54:42;15.27;;;7.63;;
13785;SDS011;47474;48.824;9.384;2024-01-15T03:57:09;13.37;;;7.33;;
13785;SDS011;47474;48.824;9.384;2024-01-15T03:59:35;11.60;;;7.90;;
13785;SDS011;47474;48.824;9.384;2024-01-15T04:02:02;12.97;;;7.47;;
13785;SDS011;47474;48.824;9.384;2024-01-15T04:04:29;14.27;;;7.77;;
13785;SDS011;47474;48.824;9.384;2024-01-15T04:06:56;13.67;;;7.33;;
13785;SDS011;47474;48.824;9.384;2024-01-15T04:09:23;11.13;;;6.83;;
13785;SDS011;47474;48.824;9.384;2024-01-15T04:11:50;13.10;;;7.23;;
13785;SDS011;47474;48.824;9.384;2024-01-15T04:14:16;14.77;;;6.57;;
13785;SDS011;47474;48.824;9.384;2024-01-15T04:16:43;15.40;;;7.60;;
13785;SDS011;47474;48.824;9.384;2024-01-15T04:19:09;11.43;;;6.53;;
13785;SDS011;47474;48.824;9.384;2024-01-15T04:21:36;14.47;;;7.33;;
13785;SDS011;47474;48.824;9.384;2024-01-15T04:24:04;15.47;;;7.53;;
13785;SDS011;47474;48.824;9.384;2024-01-15T04:26:31;13.53;;;7.23;;
13785;SDS011;47474;48.824;9.384;2024-01-15T04:28:57;14.73;;;7.97;;
13785;SDS011;47474;48.824;9.384;2024-01-15T04:31:24;13.83;;;7.17;;
13785;SDS011;47474;48.824;9.384;2024-01-15T04:33:52;12.20;;;6.23;;
13785;SDS011;47474;48.824;9.384;2024-01-15T04:36:18;14.67;;;7.83;;
13785;SDS011;47474;48.824;9.384;2024-01-15T04:38:45;12.97;;;7.17;;
13785;SDS011;47474;48.824;9.384;2024-01-15T04:41:13;14.20;;;6.67;;
13785;SDS011;47474;48.824;9.384;2024-01-15T04:43:40;10.67;;;6.77;;
13785;SDS011;47474;48.824;9.384;2024-01-15T04:46:06;12.27;;;6.77;;
13785;SDS011;47474;48.824;9.384;2024-01-15T04:48:33;17.10;;;7.17;;
13785;SDS011;47474;48.824;9.384;2024-01-15T04:50:59;11.03;;;5.97;;
13785;SDS011;47474;48.824;9.384;2024-01-15T04:53:26;8.30;;;5.83;;
13785;SDS011;47474;48.824;9.384;2024-01-15T04:55:53;13.43;;;6.90;;
13785;SDS011;47474;48.824;9.384;2024-01-15T04:58:21;12.30;;;6.40;;
13785;SDS011;47474;48.824;9.384;2024-01-15T05:00:50;12.93;;;7.47;;
13785;SDS011;47474;48.824;9.384;2024-01-15T05:03:16;12.97;;;6.70;;
13785;SDS011;47474;48.824;9.384;2024-01-15T05:05:43;12.97;;;6.37;;
13785;SDS011;47474;48.824;9.384;2024-01-15T05:08:09;14.10;;;6.60;;
13785;SDS011;47474;48.824;9.384;2024-01-15T05:10:36;11.60;;;6.47;;
13785;SDS011;47474;48.824;9.384;2024-01-15T05:13:03;14.80;;;5.80;;
13785;SDS011;47474;48.824;9.384;2024-01-15T05:15:31;10.07;;;6.13;;
13785;SDS011;47474;48.824;9.384;2024-01-15T05:17:57;10.00;;;5.47;;
13785;SDS011;47474;48.824;9.384;2024-01-15T05:20:24;9.67;;;5.80;;
13785;SDS011;47474;48.824;9.384;2024-01-15T05:22:50;10.83;;;6.70;;
13785;SDS011;47474;48.824;9.384;2024-01-15T05:25:17;9.17;;;5.70;;
13785;SDS011;47474;48.824;9.384;2024-01-15T05:27:43;8.97;;;5.97;;
13785;SDS011;47474;48.824;9.384;2024-01-15T05:30:10;12.13;;;6.93;;
13785;SDS011;47474;48.824;9.384;2024-01-15T05:32:39;10.20;;;6.03;;
13785;SDS011;47474;48.824;9.384;2024-01-15T05:35:04;11.20;;;6.23;;
13785;SDS011;47474;48.824;9.384;2024-01-15T05:37:31;12.20;;;7.10;;
13785;SDS011;47474;48.824;9.384;2024-01-15T05:39:58;9.83;;;6.40;;
13785;SDS011;47474;48.824;9.384;2024-01-15T05:42:24;11.43;;;6.63;;
13785;SDS011;47474;48.824;9.384;2024-01-15T05:44:51;11.77;;;6.80;;
13785;SDS011;47474;48.824;9.384;2024-01-15T05:47:18;11.07;;;6.67;;
13785;SDS011;47474;48.824;9.384;2024-01-15T05:49:46;11.70;;;7.23;;
13785;SDS011;47474;48.824;9.384;2024-01-15T05:52:12;12.53;;;7.20;;
13785;SDS011;47474;48.824;9.384;2024-01-15T05:54:39;11.77;;;6.03;;
13785;SDS011;47474;48.824;9.384;2024-01-15T05:57:05;12.60;;;6.33;;
13785;SDS011;47474;48.824;9.384;2024-01-15T05:59:31;11.37;;;6.80;;
13785;SDS011;47474;48.824;9.384;2024-01-15T06:02:01;8.53;;;5.60;;
13785;SDS011;47474;48.824;9.384;2024-01-15T06:04:27;10.77;;;6.80;;
13785;SDS011;47474;48.824;9.384;2024-01-15T06:06:55;10.33;;;6.43;;
13785;SDS011;47474;48.824;9.384;2024-01-15T06:09:21;10.63;;;6.20;;
13785;SDS011;47474;48.824;9.384;2024-01-15T06:11:48;10.03;;;5.50;;
13785;SDS011;47474;48.824;9.384;2024-01-15T06:14:14;12.07;;;5.80;;
13785;SDS011;47474;48.824;9.384;2024-01-15T06:16:41;10.97;;;6.00;;
13785;SDS011;47474;48.824;9.384;2024-01-15T06:19:07;8.53;;;5.33;;
13785;SDS011;47474;48.824;9.384;2024-01-15T06:21:34;13.93;;;6.23;;
13785;SDS011;47474;48.824;9.384;2024-01-15T06:24:02;11.20;;;6.70;;
13785;SDS011;47474;48.824;9.384;2024-01-15T06:26:28;9.60;;;5.63;;
13785;SDS011;47474;48.824;9.384;2024-01-15T06:28:55;8.73;;;5.93;;
13785;SDS011;47474;48.824;9.384;2024-01-15T06:31:21;9.03;;;5.37;;
13785;SDS011;47474;48.824;9.384;2024-01-15T06:33:48;11.67;;;6.60;;
13785;SDS011;47474;48.824;9.384;2024-01-15T06:36:14;13.83;;;6.93;;
13785;SDS011;47474;48.824;9.384;2024-01-15T06:38:42;12.77;;;6.70;;
13785;SDS011;47474;48.824;9.384;2024-01-15T06:41:10;14.80;;;7.40;;
13785;SDS011;47474;48.824;9.384;2024-01-15T06:43:37;10.63;;;6.47;;
13785;SDS011;47474;48.824;9.384;2024-01-15T06:46:03;13.43;;;7.30;;
13785;SDS011;47474;48.824;9.384;2024-01-15T06:48:30;11.07;;;6.83;;
13785;SDS011;47474;48.824;9.384;2024-01-15T06:50:56;12.27;;;7.47;;
13785;SDS011;47474;48.824;9.384;2024-01-15T06:53:23;13.27;;;7.37;;
13785;SDS011;47474;48.824;9.384;2024-01-15T06:55:50;15.23;;;7.53;;
13785;SDS011;47474;48.824;9.384;2024-01-15T06:58:17;14.87;;;7.57;;
13785;SDS011;47474;48.824;9.384;2024-01-15T07:00:44;11.07;;;6.63;;
13785;SDS011;47474;48.824;9.384;2024-01-15T07:03:10;11.97;;;7.23;;
13785;SDS011;47474;48.824;9.384;2024-01-15T07:05:37;14.03;;;7.47;;
13785;SDS011;47474;48.824;9.384;2024-01-15T07:08:04;17.73;;;9.03;;
13785;SDS011;47474;48.824;9.384;2024-01-15T07:10:30;16.87;;;9.30;;
13785;SDS011;47474;48.824;9.384;2024-01-15T07:12:57;11.33;;;7.53;;
13785;SDS011;47474;48.824;9.384;2024-01-15T07:15:25;14.27;;;8.43;;
13785;SDS011;47474;48.824;9.384;2024-01-15T07:17:51;16.97;;;9.10;;
13785;SDS011;47474;48.824;9.384;2024-01-15T07:20:18;11.23;;;7.40;;
13785;SDS011;47474;48.824;9.384;2024-01-15T07:22:45;12.70;;;7.37;;
13785;SDS011;47474;48.824;9.384;2024-01-15T07:25:12;14.20;;;7.57;;
13785;SDS011;47474;48.824;9.384;2024-01-15T07:27:38;14.20;;;7.70;;
13785;SDS011;47474;48.824;9.384;2024-01-15T07:30:08;13.07;;;6.93;;
13785;SDS011;47474;48.824;9.384;2024-01-15T07:32:36;12.67;;;7.20;;
13785;SDS011;47474;48.824;9.384;2024-01-15T07:35:02;12.93;;;6.80;;
13785;SDS011;47474;48.824;9.384;2024-01-15T07:37:30;11.37;;;6.63;;
13785;SDS011;47474;48.824;9.384;2024-01-15T07:39:56;12.03;;;6.67;;
13785;SDS011;47474;48.824;9.384;2024-01-15T07:42:23;12.63;;;7.10;;
13785;SDS011;47474;48.824;9.384;2024-01-15T07:44:49;12.33;;;7.90;;
13785;SDS011;47474;48.824;9.384;2024-01-15T07:47:16;13.77;;;8.13;;
13785;SDS011;47474;48.824;9.384;2024-01-15T07:49:44;15.07;;;8.70;;
13785;SDS011;47474;48.824;9.384;2024-01-15T07:52:11;15.67;;;9.27;;
13785;SDS011;47474;48.824;9.384;2024-01-15T07:54:38;16.90;;;9.40;;
13785;SDS011;47474;48.824;9.384;2024-01-15T07:57:04;13.73;;;8.53;;
13785;SDS011;47474;48.824;9.384;2024-01-15T07:59:31;14.47;;;8.90;;
13785;SDS011;47474;48.824;9.384;2024-01-15T08:01:58;14.43;;;8.97;;
13785;SDS011;47474;48.824;9.384;2024-01-15T08:04:25;15.30;;;8.87;;
13785;SDS011;47474;48.824;9.384;2024-01-15T08:06:52;13.20;;;7.70;;
13785;SDS011;47474;48.824;9.384;2024-01-15T08:09:19;14.87;;;7.57;;
13785;SDS011;47474;48.824;9.384;2024-01-15T08:11:45;9.27;;;6.33;;
13785;SDS011;47474;48.824;9.384;2024-01-15T08:14:12;11.70;;;6.90;;
13785;SDS011;47474;48.824;9.384;2024-01-15T08:16:39;14.67;;;6.70;;
13785;SDS011;47474;48.824;9.384;2024-01-15T08:19:05;9.77;;;6.63;;
13785;SDS011;47474;48.824;9.384;2024-01-15T08:21:32;12.10;;;6.37;;
13785;SDS011;47474;48.824;9.384;2024-01-15T08:24:01;9.40;;;6.10;;
13785;SDS011;47474;48.824;9.384;2024-01-15T08:26:28;7.93;;;5.47;;
13785;SDS011;47474;48.824;9.384;2024-01-15T08:28:54;11.63;;;6.33;;
13785;SDS011;47474;48.824;9.384;2024-01-15T08:31:21;12.10;;;6.43;;
13785;SDS011;47474;48.824;9.384;2024-01-15T08:33:47;12.63;;;6.07;;
13785;SDS011;47474;48.824;9.384;2024-01-15T08:36:14;10.43;;;5.97;;
13785;SDS011;47474;48.824;9.384;2024-01-15T08:38:40;7.37;;;5.27;;
13785;SDS011;47474;48.824;9.384;2024-01-15T08:41:08;9.83;;;5.13;;
13785;SDS011;47474;48.824;9.384;2024-01-15T08:43:34;8.47;;;5.30;;
13785;SDS011;47474;48.824;9.384;2024-01-15T08:46:01;8.07;;;4.73;;
13785;SDS011;47474;48.824;9.384;2024-01-15T08:48:28;9.43;;;5.33;;
13785;SDS011;47474;48.824;9.384;2024-01-15T08:50:55;10.07;;;5.13;;
13785;SDS011;47474;48.824;9.384;2024-01-15T08:53:22;8.23;;;5.07;;
13785;SDS011;47474;48.824;9.384;2024-01-15T08:55:48;10.93;;;5.70;;
13785;SDS011;47474;48.824;9.384;2024-01-15T08:58:16;9.80;;;5.27;;
13785;SDS011;47474;48.824;9.384;2024-01-15T09:00:43;9.90;;;5.23;;
13785;SDS011;47474;48.824;9.384;2024-01-15T09:03:10;10.70;;;5.93;;
13785;SDS011;47474;48.824;9.384;2024-01-15T09:05:36;13.17;;;7.07;;
13785;SDS011;47474;48.824;9.384;2024-01-15T09:08:03;15.63;;;6.80;;
13785;SDS011;47474;48.824;9.384;2024-01-15T09:10:30;9.03;;;5.87;;
13785;SDS011;47474;48.824;9.384;2024-01-15T09:12:56;8.57;;;4.77;;
13785;SDS011;47474;48.824;9.384;2024-01-15T09:15:24;6.60;;;5.00;;
13785;SDS011;47474;48.824;9.384;2024-01-15T09:17:51;7.57;;;4.97;;
13785;SDS011;47474;48.824;9.384;2024-01-15T09:20:17;8.40;;;5.20;;
13785;SDS011;47474;48.824;9.384;2024-01-15T09:22:44;10.13;;;4.57;;
13785;SDS011;47474;48.824;9.384;2024-01-15T09:25:10;7.93;;;5.13;;
13785;SDS011;47474;48.824;9.384;2024-01-15T09:27:37;8.30;;;5.17;;
13785;SDS011;47474;48.824;9.384;2024-01-15T09:30:04;7.53;;;4.43;;
13785;SDS011;47474;48.824;9.384;2024-01-15T09:32:32;7.17;;;4.60;;
13785;SDS011;47474;48.824;9.384;2024-01-15T09:34:59;8.17;;;4.47;;
13785;SDS011;47474;48.824;9.384;2024-01-15T09:37:26;8.77;;;4.10;;
13785;SDS011;47474;48.824;9.384;2024-01-15T09:39:52;7.20;;;4.07;;
13785;SDS011;47474;48.824;9.384;2024-01-15T09:42:20;5.77;;;3.97;;
13785;SDS011;47474;48.824;9.384;2024-01-15T09:44:48;8.60;;;5.03;;
13785;SDS011;47474;48.824;9.384;2024-01-15T09:47:14;6.07;;;3.90;;
13785;SDS011;47474;48.824;9.384;2024-01-15T09:49:43;6.63;;;4.20;;
13785;SDS011;47474;48.824;9.384;2024-01-15T09:52:10;6.97;;;4.30;;
13785;SDS011;47474;48.824;9.384;2024-01-15T09:54:37;7.00;;;3.97;;
13785;SDS011;47474;48.824;9.384;2024-01-15T09:57:05;7.30;;;3.80;;
13785;SDS011;47474;48.824;9.384;2024-01-15T09:59:31;6.23;;;3.80;;
13785;SDS011;47474;48.824;9.384;2024-01-15T10:01:58;5.97;;;3.87;;
13785;SDS011;47474;48.824;9.384;2024-01-15T10:04:25;6.63;;;3.97;;
13785;SDS011;47474;48.824;9.384;2024-01-15T10:06:52;6.97;;;3.53;;
13785;SDS011;47474;48.824;9.384;2024-01-15T10:09:20;6.03;;;3.50;;
13785;SDS011;47474;48.824;9.384;2024-01-15T10:11:47;6.27;;;3.93;;
13785;SDS011;47474;48.824;9.384;2024-01-15T10:14:14;6.07;;;3.87;;
13785;SDS011;47474;48.824;9.384;2024-01-15T10:16:40;7.30;;;4.40;;
13785;SDS011;47474;48.824;9.384;2024-01-15T10:19:07;5.97;;;3.83;;
13785;SDS011;47474;48.824;9.384;2024-01-15T10:21:34;7.60;;;3.90;;
13785;SDS011;47474;48.824;9.384;2024-01-15T10:24:02;7.40;;;4.00;;
13785;SDS011;47474;48.824;9.384;2024-01-15T10:26:29;5.37;;;4.10;;
13785;SDS011;47474;48.824;9.384;2024-01-15T10:28:58;7.07;;;3.30;;
13785;SDS011;47474;48.824;9.384;2024-01-15T10:31:26;5.47;;;4.10;;
13785;SDS011;47474;48.824;9.384;2024-01-15T10:33:53;5.10;;;3.60;;
13785;SDS011;47474;48.824;9.384;2024-01-15T10:36:20;7.03;;;3.47;;
13785;SDS011;47474;48.824;9.384;2024-01-15T10:38:47;5.83;;;3.57;;
13785;SDS011;47474;48.824;9.384;2024-01-15T10:41:15;4.07;;;2.90;;
13785;SDS011;47474;48.824;9.384;2024-01-15T10:43:42;7.03;;;3.33;;
13785;SDS011;47474;48.824;9.384;2024-01-15T10:46:10;5.70;;;3.90;;
13785;SDS011;47474;48.824;9.384;2024-01-15T10:48:36;5.73;;;3.43;;
13785;SDS011;47474;48.824;9.384;2024-01-15T10:51:03;4.83;;;3.20;;
13785;SDS011;47474;48.824;9.384;2024-01-15T10:53:35;6.03;;;3.60;;
13785;SDS011;47474;48.824;9.384;2024-01-15T10:56:04;6.97;;;3.80;;
13785;SDS011;47474;48.824;9.384;2024-01-15T10:58:32;5.17;;;3.80;;
13785;SDS011;47474;48.824;9.384;2024-01-15T11:00:59;7.23;;;3.60;;
13785;SDS011;47474;48.824;9.384;2024-01-15T11:03:26;7.87;;;3.93;;
13785;SDS011;47474;48.824;9.384;2024-01-15T11:05:53;6.43;;;3.57;;
13785;SDS011;47474;48.824;9.384;2024-01-15T11:08:20;5.63;;;3.47;;
13785;SDS011;47474;48.824;9.384;2024-01-15T11:10:47;6.50;;;3.60;;
13785;SDS011;47474;48.824;9.384;2024-01-15T11:13:15;7.57;;;4.30;;
13785;SDS011;47474;48.824;9.384;2024-01-15T11:15:55;4.53;;;3.43;;
13785;SDS011;47474;48.824;9.384;2024-01-15T11:18:26;4.17;;;2.83;;
13785;SDS011;47474;48.824;9.384;2024-01-15T11:23:47;6.27;;;3.20;;
13785;SDS011;47474;48.824;9.384;2024-01-15T11:26:30;5.57;;;3.80;;
13785;SDS011;47474;48.824;9.384;2024-01-15T11:28:58;5.50;;;3.40;;
13785;SDS011;47474;48.824;9.384;2024-01-15T11:31:28;5.80;;;4.10;;
13785;SDS011;47474;48.824;9.384;2024-01-15T11:33:55;5.90;;;3.17;;
13785;SDS011;47474;48.824;9.384;2024-01-15T11:36:21;6.20;;;3.37;;
13785;SDS011;47474;48.824;9.384;2024-01-15T11:38:48;6.40;;;3.97;;
13785;SDS011;47474;48.824;9.384;2024-01-15T11:41:14;5.50;;;3.80;;
13785;SDS011;47474;48.824;9.384;2024-01-15T11:43:41;5.23;;;3.37;;
13785;SDS011;47474;48.824;9.384;2024-01-15T11:46:10;5.17;;;3.60;;
13785;SDS011;47474;48.824;9.384;2024-01-15T11:48:42;5.13;;;3.47;;
13785;SDS011;47474;48.824;9.384;2024-01-15T11:51:11;5.40;;;3.23;;
13785;SDS011;47474;48.824;9.384;2024-01-15T11:53:40;5.17;;;3.73;;
13785;SDS011;47474;48.824;9.384;2024-01-15T11:56:11;4.37;;;3.20;;
13785;SDS011;47474;48.824;9.384;2024-01-15T11:58:41;7.27;;;4.37;;
13785;SDS011;47474;48.824;9.384;2024-01-15T12:01:08;4.40;;;3.73;;
13785;SDS011;47474;48.824;9.384;2024-01-15T12:03:34;8.53;;;4.47;;
13785;SDS011;47474;48.824;9.384;2024-01-15T12:06:02;6.43;;;3.77;;
13785;SDS011;47474;48.824;9.384;2024-01-15T12:08:31;6.00;;;3.23;;
13785;SDS011;47474;48.824;9.384;2024-01-15T12:10:58;8.87;;;4.30;;
13785;SDS011;47474;48.824;9.384;2024-01-15T12:13:25;6.50;;;4.00;;
13785;SDS011;47474;48.824;9.384;2024-01-15T12:15:52;6.07;;;3.90;;
13785;SDS011;47474;48.824;9.384;2024-01-15T12:18:20;9.67;;;3.87;;
13785;SDS011;47474;48.824;9.384;2024-01-15T12:20:47;6.00;;;3.70;;
13785;SDS011;47474;48.824;9.384;2024-01-15T12:23:15;4.53;;;3.93;;
13785;SDS011;47474;48.824;9.384;2024-01-15T12:25:42;16.40;;;7.23;;
13785;SDS011;47474;48.824;9.384;2024-01-15T12:28:08;11.37;;;6.47;;
13785;SDS011;47474;48.824;9.384;2024-01-15T12:30:35;10.70;;;5.77;;
13785;SDS011;47474;48.824;9.384;2024-01-15T12:33:03;6.93;;;4.37;;
13785;SDS011;47474;48.824;9.384;2024-01-15T12:35:30;7.97;;;3.97;;
13785;SDS011;47474;48.824;9.384;2024-01-15T12:37:56;6.53;;;3.40;;
13785;SDS011;47474;48.824;9.384;2024-01-15T12:40:24;4.40;;;3.43;;
13785;SDS011;47474;48.824;9.384;2024-01-15T12:42:50;4.00;;;3.37;;
13785;SDS011;47474;48.824;9.384;2024-01-15T12:45:17;4.97;;;3.77;;
13785;SDS011;47474;48.824;9.384;2024-01-15T12:47:43;4.67;;;3.67;;
13785;SDS011;47474;48.824;9.384;2024-01-15T12:50:10;6.37;;;3.43;;
13785;SDS011;47474;48.824;9.384;2024-01-15T12:52:39;5.20;;;3.53;;
13785;SDS011;47474;48.824;9.384;2024-01-15T12:55:06;5.10;;;3.63;;
13785;SDS011;47474;48.824;9.384;2024-01-15T12:57:35;8.03;;;4.63;;
13785;SDS011;47474;48.824;9.384;2024-01-15T13:00:02;6.33;;;3.90;;
13785;SDS011;47474;48.824;9.384;2024-01-15T13:02:31;6.70;;;4.13;;
13785;SDS011;47474;48.824;9.384;2024-01-15T13:04:58;5.47;;;3.47;;
13785;SDS011;47474;48.824;9.384;2024-01-15T13:07:25;5.87;;;3.70;;
13785;SDS011;47474;48.824;9.384;2024-01-15T13:09:51;6.60;;;3.70;;
13785;SDS011;47474;48.824;9.384;2024-01-15T13:12:18;6.03;;;3.97;;
13785;SDS011;47474;48.824;9.384;2024-01-15T13:14:46;4.93;;;3.47;;
13785;SDS011;47474;48.824;9.384;2024-01-15T13:17:13;4.67;;;3.40;;
13785;SDS011;47474;48.824;9.384;2024-01-15T13:19:40;6.37;;;3.90;;
13785;SDS011;47474;48.824;9.384;2024-01-15T13:22:06;7.40;;;4.47;;
13785;SDS011;47474;48.824;9.384;2024-01-15T13:24:34;8.30;;;3.67;;
13785;SDS011;47474;48.824;9.384;2024-01-15T13:27:01;6.90;;;4.63;;
13785;SDS011;47474;48.824;9.384;2024-01-15T13:29:27;7.53;;;4.30;;
13785;SDS011;47474;48.824;9.384;2024-01-15T13:31:55;6.30;;;4.37;;
13785;SDS011;47474;48.824;9.384;2024-01-15T13:34:22;7.20;;;4.03;;
13785;SDS011;47474;48.824;9.384;2024-01-15T13:36:48;8.27;;;4.53;;
13785;SDS011;47474;48.824;9.384;2024-01-15T13:39:15;4.67;;;3.50;;
13785;SDS011;47474;48.824;9.384;2024-01-15T13:41:45;5.67;;;3.83;;
13785;SDS011;47474;48.824;9.384;2024-01-15T13:44:11;5.50;;;4.17;;
13785;SDS011;47474;48.824;9.384;2024-01-15T13:46:38;9.13;;;4.27;;
13785;SDS011;47474;48.824;9.384;2024-01-15T13:49:05;6.83;;;4.33;;
13785;SDS011;47474;48.824;9.384;2024-01-15T13:51:32;6.53;;;4.60;;
13785;SDS011;47474;48.824;9.384;2024-01-15T13:53:59;6.13;;;3.73;;
13785;SDS011;47474;48.824;9.384;2024-01-15T13:56:26;4.53;;;3.70;;
13785;SDS011;47474;48.824;9.384;2024-01-15T13:58:56;4.60;;;3.60;;
13785;SDS011;47474;48.824;9.384;2024-01-15T14:01:23;4.73;;;3.50;;
13785;SDS011;47474;48.824;9.384;2024-01-15T14:03:49;6.80;;;2.83;;
13785;SDS011;47474;48.824;9.384;2024-01-15T14:06:17;3.93;;;3.10;;
13785;SDS011;47474;48.824;9.384;2024-01-15T14:08:44;3.53;;;2.70;;
13785;SDS011;47474;48.824;9.384;2024-01-15T14:11:10;5.97;;;3.27;;
13785;SDS011;47474;48.824;9.384;2024-01-15T14:13:37;3.63;;;3.00;;
13785;SDS011;47474;48.824;9.384;2024-01-15T14:16:04;4.17;;;3.07;;
13785;SDS011;47474;48.824;9.384;2024-01-15T14:18:31;4.57;;;3.27;;
13785;SDS011;47474;48.824;9.384;2024-01-15T14:20:58;3.93;;;2.80;;
13785;SDS011;47474;48.824;9.384;2024-01-15T14:23:25;4.73;;;3.17;;
13785;SDS011;47474;48.824;9.384;2024-01-15T14:25:52;4.23;;;2.70;;
13785;SDS011;47474;48.824;9.384;2024-01-15T14:28:19;4.67;;;3.77;;
13785;SDS011;47474;48.824;9.384;2024-01-15T14:30:45;3.93;;;3.23;;
13785;SDS011;47474;48.824;9.384;2024-01-15T14:33:11;6.20;;;4.10;;
13785;SDS011;47474;48.824;9.384;2024-01-15T14:35:38;5.27;;;4.20;;
13785;SDS011;47474;48.824;9.384;2024-01-15T14:38:04;5.07;;;3.87;;
13785;SDS011;47474;48.824;9.384;2024-01-15T14:40:34;7.10;;;3.80;;